sensor_id;sensor_type;location;lat;lon;timestamp;pressure;altitude;pressure_sealevel;temperature;humidity
69971;BME280;57301;50.328;8.542;2022-11-21T00:00:44;97318.63;;;4.96;87.31
69971;BME280;57301;50.328;8.542;2022-11-21T00:03:12;97306.22;;;5.06;87.00
69971;BME280;57301;50.328;8.542;2022-11-21T00:05:40;97324.84;;;5.05;87.29
69971;BME280;57301;50.328;8.542;2022-11-21T00:08:07;97330.19;;;4.95;87.96
69971;BME280;57301;50.328;8.542;2022-11-21T00:10:36;97313.69;;;4.83;87.73
69971;BME280;57301;50.328;8.542;2022-11-21T00:13:03;97320.59;;;4.94;87.59
69971;BME280;57301;50.328;8.542;2022-11-21T00:15:30;97322.09;;;4.97;86.70
69971;BME280;57301;50.328;8.542;2022-11-21T00:17:57;97327.44;;;4.87;87.16
69971;BME280;57301;50.328;8.542;2022-11-21T00:20:23;97328.84;;;4.91;87.19
69971;BME280;57301;50.328;8.542;2022-11-21T00:22:50;97326.28;;;4.99;86.92
69971;BME280;57301;50.328;8.542;2022-11-21T00:25:16;97314.88;;;4.99;86.60
69971;BME280;57301;50.328;8.542;2022-11-21T00:27:43;97320.69;;;5.02;86.02
69971;BME280;57301;50.328;8.542;2022-11-21T00:30:10;97320.16;;;4.99;86.69
69971;BME280;57301;50.328;8.542;2022-11-21T00:32:36;97306.97;;;5.17;85.54
69971;BME280;57301;50.328;8.542;2022-11-21T00:35:03;97317.25;;;5.20;85.84
69971;BME280;57301;50.328;8.542;2022-11-21T00:37:31;97321.91;;;5.08;86.78
69971;BME280;57301;50.328;8.542;2022-11-21T00:39:57;97315.03;;;5.15;86.41
69971;BME280;57301;50.328;8.542;2022-11-21T00:42:24;97321.06;;;5.35;85.86
69971;BME280;57301;50.328;8.542;2022-11-21T00:44:50;97319.72;;;5.21;85.80
69971;BME280;57301;50.328;8.542;2022-11-21T00:47:17;97312.34;;;5.25;85.87
69971;BME280;57301;50.328;8.542;2022-11-21T00:49:44;97319.59;;;5.23;86.20
69971;BME280;57301;50.328;8.542;2022-11-21T00:52:10;97315.97;;;5.24;85.90
69971;BME280;57301;50.328;8.542;2022-11-21T00:54:37;97318.38;;;5.17;86.30
69971;BME280;57301;50.328;8.542;2022-11-21T00:57:03;97316.13;;;5.22;85.88
69971;BME280;57301;50.328;8.542;2022-11-21T00:59:29;97310.16;;;5.20;86.36
69971;BME280;57301;50.328;8.542;2022-11-21T01:01:56;97306.69;;;5.37;86.02
69971;BME280;57301;50.328;8.542;2022-11-21T01:04:22;97304.19;;;5.36;86.23
69971;BME280;57301;50.328;8.542;2022-11-21T01:06:49;97303.06;;;5.38;86.44
69971;BME280;57301;50.328;8.542;2022-11-21T01:09:16;97297.78;;;5.38;86.36
69971;BME280;57301;50.328;8.542;2022-11-21T01:11:42;97293.78;;;5.17;87.81
69971;BME280;57301;50.328;8.542;2022-11-21T01:14:09;97301.69;;;5.17;88.82
69971;BME280;57301;50.328;8.542;2022-11-21T01:16:35;97298.47;;;5.23;88.41
69971;BME280;57301;50.328;8.542;2022-11-21T01:19:02;97300.34;;;5.30;89.00
69971;BME280;57301;50.328;8.542;2022-11-21T01:21:30;97302.75;;;5.24;89.30
69971;BME280;57301;50.328;8.542;2022-11-21T01:24:00;97304.88;;;5.38;88.66
69971;BME280;57301;50.328;8.542;2022-11-21T01:26:29;97295.34;;;5.27;89.30
69971;BME280;57301;50.328;8.542;2022-11-21T01:28:56;97289.94;;;5.29;88.86
69971;BME280;57301;50.328;8.542;2022-11-21T01:31:25;97301.00;;;5.15;88.98
69971;BME280;57301;50.328;8.542;2022-11-21T01:33:53;97292.72;;;5.09;89.57
69971;BME280;57301;50.328;8.542;2022-11-21T01:36:22;97296.69;;;5.13;89.35
69971;BME280;57301;50.328;8.542;2022-11-21T01:38:51;97304.34;;;5.17;88.73
69971;BME280;57301;50.328;8.542;2022-11-21T01:41:21;97309.31;;;5.20;87.99
69971;BME280;57301;50.328;8.542;2022-11-21T01:43:48;97299.28;;;5.23;88.14
69971;BME280;57301;50.328;8.542;2022-11-21T01:46:22;97293.00;;;5.06;88.80
69971;BME280;57301;50.328;8.542;2022-11-21T01:49:02;97292.31;;;5.04;88.53
69971;BME280;57301;50.328;8.542;2022-11-21T01:51:32;97294.66;;;5.07;89.20
69971;BME280;57301;50.328;8.542;2022-11-21T01:57:09;97288.09;;;5.11;88.46
69971;BME280;57301;50.328;8.542;2022-11-21T01:59:48;97289.22;;;5.09;88.03
69971;BME280;57301;50.328;8.542;2022-11-21T02:02:18;97299.66;;;5.10;89.02
69971;BME280;57301;50.328;8.542;2022-11-21T02:04:47;97300.94;;;5.24;87.81
69971;BME280;57301;50.328;8.542;2022-11-21T02:07:14;97299.75;;;5.36;88.16
69971;BME280;57301;50.328;8.542;2022-11-21T02:09:45;97294.91;;;5.32;88.19
69971;BME280;57301;50.328;8.542;2022-11-21T02:12:21;97298.53;;;5.31;88.21
69971;BME280;57301;50.328;8.542;2022-11-21T02:14:50;97297.50;;;5.42;87.52
69971;BME280;57301;50.328;8.542;2022-11-21T02:17:18;97306.47;;;5.31;88.34
69971;BME280;57301;50.328;8.542;2022-11-21T02:22:22;97300.50;;;5.29;87.51
69971;BME280;57301;50.328;8.542;2022-11-21T02:25:16;97304.66;;;5.49;86.46
69971;BME280;57301;50.328;8.542;2022-11-21T02:27:44;97295.84;;;5.41;86.47
69971;BME280;57301;50.328;8.542;2022-11-21T02:30:11;97300.13;;;5.24;87.56
69971;BME280;57301;50.328;8.542;2022-11-21T02:32:41;97307.09;;;5.15;87.95
69971;BME280;57301;50.328;8.542;2022-11-21T02:35:08;97310.31;;;5.19;87.26
69971;BME280;57301;50.328;8.542;2022-11-21T02:37:35;97318.00;;;5.12;88.58
69971;BME280;57301;50.328;8.542;2022-11-21T02:40:09;97318.53;;;5.16;87.84
69971;BME280;57301;50.328;8.542;2022-11-21T02:42:42;97321.50;;;5.30;88.04
69971;BME280;57301;50.328;8.542;2022-11-21T02:45:25;97322.88;;;5.34;87.50
69971;BME280;57301;50.328;8.542;2022-11-21T02:47:55;97332.91;;;5.31;87.46
69971;BME280;57301;50.328;8.542;2022-11-21T02:50:31;97328.88;;;5.27;87.99
69971;BME280;57301;50.328;8.542;2022-11-21T02:52:58;97326.53;;;5.24;88.11
69971;BME280;57301;50.328;8.542;2022-11-21T02:55:25;97331.91;;;5.32;87.98
69971;BME280;57301;50.328;8.542;2022-11-21T02:57:52;97331.97;;;5.40;86.73
69971;BME280;57301;50.328;8.542;2022-11-21T03:00:19;97324.22;;;5.56;87.25
69971;BME280;57301;50.328;8.542;2022-11-21T03:02:46;97329.44;;;5.66;86.07
69971;BME280;57301;50.328;8.542;2022-11-21T03:05:17;97329.72;;;5.45;86.96
69971;BME280;57301;50.328;8.542;2022-11-21T03:07:45;97335.63;;;5.57;87.03
69971;BME280;57301;50.328;8.542;2022-11-21T03:10:12;97332.00;;;5.58;86.78
69971;BME280;57301;50.328;8.542;2022-11-21T03:12:39;97329.88;;;5.61;86.47
69971;BME280;57301;50.328;8.542;2022-11-21T03:15:08;97331.75;;;5.51;85.67
69971;BME280;57301;50.328;8.542;2022-11-21T03:17:35;97332.25;;;5.47;86.30
69971;BME280;57301;50.328;8.542;2022-11-21T03:20:02;97336.59;;;5.38;86.66
69971;BME280;57301;50.328;8.542;2022-11-21T03:22:29;97335.72;;;5.47;86.33
69971;BME280;57301;50.328;8.542;2022-11-21T03:24:56;97330.88;;;5.43;86.44
69971;BME280;57301;50.328;8.542;2022-11-21T03:27:22;97334.88;;;5.29;87.22
69971;BME280;57301;50.328;8.542;2022-11-21T03:29:49;97340.16;;;5.29;87.56
69971;BME280;57301;50.328;8.542;2022-11-21T03:32:15;97347.84;;;5.40;87.03
69971;BME280;57301;50.328;8.542;2022-11-21T03:34:42;97341.00;;;5.47;86.67
69971;BME280;57301;50.328;8.542;2022-11-21T03:37:08;97347.34;;;5.54;86.84
69971;BME280;57301;50.328;8.542;2022-11-21T03:39:35;97348.38;;;5.44;86.85
69971;BME280;57301;50.328;8.542;2022-11-21T03:42:01;97343.63;;;5.47;88.07
69971;BME280;57301;50.328;8.542;2022-11-21T03:44:28;97350.38;;;5.59;87.59
69971;BME280;57301;50.328;8.542;2022-11-21T03:46:55;97343.41;;;5.58;88.46
69971;BME280;57301;50.328;8.542;2022-11-21T03:49:21;97351.19;;;5.60;88.78
69971;BME280;57301;50.328;8.542;2022-11-21T03:51:48;97354.50;;;5.44;88.92
69971;BME280;57301;50.328;8.542;2022-11-21T03:54:14;97353.50;;;5.45;89.12
69971;BME280;57301;50.328;8.542;2022-11-21T03:56:41;97363.59;;;5.59;88.90
69971;BME280;57301;50.328;8.542;2022-11-21T03:59:07;97363.41;;;5.43;88.79
69971;BME280;57301;50.328;8.542;2022-11-21T04:01:34;97358.53;;;5.48;89.24
69971;BME280;57301;50.328;8.542;2022-11-21T04:04:02;97354.28;;;5.37;88.86
69971;BME280;57301;50.328;8.542;2022-11-21T04:06:29;97359.72;;;5.36;89.50
69971;BME280;57301;50.328;8.542;2022-11-21T04:08:56;97361.22;;;5.38;88.92
69971;BME280;57301;50.328;8.542;2022-11-21T04:11:23;97362.94;;;5.30;89.59
69971;BME280;57301;50.328;8.542;2022-11-21T04:13:52;97353.50;;;5.45;89.16
69971;BME280;57301;50.328;8.542;2022-11-21T04:16:19;97356.38;;;5.34;88.50
69971;BME280;57301;50.328;8.542;2022-11-21T04:18:46;97362.34;;;5.36;88.83
69971;BME280;57301;50.328;8.542;2022-11-21T04:21:12;97367.22;;;5.41;88.37
69971;BME280;57301;50.328;8.542;2022-11-21T04:23:38;97361.44;;;5.45;87.71
69971;BME280;57301;50.328;8.542;2022-11-21T04:26:05;97372.56;;;5.49;87.40
69971;BME280;57301;50.328;8.542;2022-11-21T04:28:31;97371.31;;;5.25;88.61
69971;BME280;57301;50.328;8.542;2022-11-21T04:31:05;97369.91;;;5.31;88.23
69971;BME280;57301;50.328;8.542;2022-11-21T04:33:37;97367.00;;;5.24;88.76
69971;BME280;57301;50.328;8.542;2022-11-21T04:36:05;97356.28;;;5.26;89.03
69971;BME280;57301;50.328;8.542;2022-11-21T04:38:32;97356.00;;;5.29;88.94
69971;BME280;57301;50.328;8.542;2022-11-21T04:40:58;97365.97;;;5.35;87.98
69971;BME280;57301;50.328;8.542;2022-11-21T04:43:25;97367.25;;;5.31;88.25
69971;BME280;57301;50.328;8.542;2022-11-21T04:45:51;97369.91;;;5.31;88.90
69971;BME280;57301;50.328;8.542;2022-11-21T04:48:17;97376.91;;;5.22;88.74
69971;BME280;57301;50.328;8.542;2022-11-21T04:50:44;97381.06;;;5.25;89.29
69971;BME280;57301;50.328;8.542;2022-11-21T04:53:11;97372.47;;;5.23;88.01
69971;BME280;57301;50.328;8.542;2022-11-21T04:55:37;97376.38;;;5.19;89.50
69971;BME280;57301;50.328;8.542;2022-11-21T04:58:04;97376.56;;;5.35;89.49
69971;BME280;57301;50.328;8.542;2022-11-21T05:00:30;97374.81;;;5.44;89.52
69971;BME280;57301;50.328;8.542;2022-11-21T05:03:04;97383.28;;;5.29;89.32
69971;BME280;57301;50.328;8.542;2022-11-21T05:05:32;97383.16;;;5.21;90.07
69971;BME280;57301;50.328;8.542;2022-11-21T05:07:58;97385.09;;;5.29;89.84
69971;BME280;57301;50.328;8.542;2022-11-21T05:10:25;97386.03;;;5.28;91.00
69971;BME280;57301;50.328;8.542;2022-11-21T05:12:58;97379.72;;;5.38;90.23
69971;BME280;57301;50.328;8.542;2022-11-21T05:15:44;97388.19;;;5.42;90.02
69971;BME280;57301;50.328;8.542;2022-11-21T05:18:11;97382.59;;;5.45;90.28
69971;BME280;57301;50.328;8.542;2022-11-21T05:20:38;97379.41;;;5.24;89.83
69971;BME280;57301;50.328;8.542;2022-11-21T05:23:04;97384.09;;;5.30;90.24
69971;BME280;57301;50.328;8.542;2022-11-21T05:25:31;97384.09;;;5.30;89.95
69971;BME280;57301;50.328;8.542;2022-11-21T05:27:57;97388.00;;;5.26;89.76
69971;BME280;57301;50.328;8.542;2022-11-21T05:30:24;97392.63;;;5.24;90.12
69971;BME280;57301;50.328;8.542;2022-11-21T05:32:50;97381.72;;;5.27;90.52
69971;BME280;57301;50.328;8.542;2022-11-21T05:35:16;97387.41;;;5.32;89.82
69971;BME280;57301;50.328;8.542;2022-11-21T05:37:43;97377.75;;;5.23;89.52
69971;BME280;57301;50.328;8.542;2022-11-21T05:40:10;97387.13;;;5.35;89.29
69971;BME280;57301;50.328;8.542;2022-11-21T05:42:41;97384.34;;;5.36;89.27
69971;BME280;57301;50.328;8.542;2022-11-21T05:45:26;97388.03;;;5.44;88.64
69971;BME280;57301;50.328;8.542;2022-11-21T05:47:52;97387.41;;;5.32;89.01
69971;BME280;57301;50.328;8.542;2022-11-21T05:50:19;97382.25;;;5.12;89.56
69971;BME280;57301;50.328;8.542;2022-11-21T05:52:45;97380.03;;;5.08;89.93
69971;BME280;57301;50.328;8.542;2022-11-21T05:55:12;97377.16;;;5.29;90.30
69971;BME280;57301;50.328;8.542;2022-11-21T05:57:38;97384.50;;;5.35;89.64
69971;BME280;57301;50.328;8.542;2022-11-21T06:00:05;97377.75;;;5.23;89.62
69971;BME280;57301;50.328;8.542;2022-11-21T06:02:32;97369.25;;;5.19;89.59
69971;BME280;57301;50.328;8.542;2022-11-21T06:05:17;97365.56;;;5.12;89.97
69971;BME280;57301;50.328;8.542;2022-11-21T06:07:43;97379.69;;;5.21;90.42
69971;BME280;57301;50.328;8.542;2022-11-21T06:10:10;97366.72;;;5.00;90.54
69971;BME280;57301;50.328;8.542;2022-11-21T06:12:36;97374.34;;;5.03;90.57
69971;BME280;57301;50.328;8.542;2022-11-21T06:15:03;97366.31;;;5.04;90.60
69971;BME280;57301;50.328;8.542;2022-11-21T06:17:29;97374.66;;;5.00;91.08
69971;BME280;57301;50.328;8.542;2022-11-21T06:19:56;97370.81;;;4.84;90.84
69971;BME280;57301;50.328;8.542;2022-11-21T06:22:22;97375.84;;;4.78;92.60
69971;BME280;57301;50.328;8.542;2022-11-21T06:24:49;97382.69;;;4.71;92.70
69971;BME280;57301;50.328;8.542;2022-11-21T06:27:15;97376.06;;;4.67;92.80
69971;BME280;57301;50.328;8.542;2022-11-21T06:29:42;97385.47;;;4.69;92.97
69971;BME280;57301;50.328;8.542;2022-11-21T06:32:08;97386.56;;;4.76;92.61
69971;BME280;57301;50.328;8.542;2022-11-21T06:34:35;97386.66;;;4.84;91.85
69971;BME280;57301;50.328;8.542;2022-11-21T06:37:01;97384.88;;;4.85;91.37
69971;BME280;57301;50.328;8.542;2022-11-21T06:39:28;97386.81;;;4.83;91.47
69971;BME280;57301;50.328;8.542;2022-11-21T06:41:54;97384.94;;;4.66;91.50
69971;BME280;57301;50.328;8.542;2022-11-21T06:44:21;97384.91;;;4.75;91.14
69971;BME280;57301;50.328;8.542;2022-11-21T06:46:47;97385.47;;;4.79;91.74
69971;BME280;57301;50.328;8.542;2022-11-21T06:49:17;97394.34;;;4.78;90.86
69971;BME280;57301;50.328;8.542;2022-11-21T06:51:44;97392.66;;;4.87;90.48
69971;BME280;57301;50.328;8.542;2022-11-21T06:54:10;97395.16;;;4.78;90.22
69971;BME280;57301;50.328;8.542;2022-11-21T06:56:53;97396.41;;;4.84;90.45
69971;BME280;57301;50.328;8.542;2022-11-21T06:59:20;97403.78;;;4.80;90.35
69971;BME280;57301;50.328;8.542;2022-11-21T07:01:47;97406.28;;;4.82;90.81
69971;BME280;57301;50.328;8.542;2022-11-21T07:04:13;97406.44;;;4.80;90.26
69971;BME280;57301;50.328;8.542;2022-11-21T07:06:40;97405.13;;;4.94;90.28
69971;BME280;57301;50.328;8.542;2022-11-21T07:09:07;97399.41;;;4.99;89.46
69971;BME280;57301;50.328;8.542;2022-11-21T07:11:53;97405.63;;;5.07;89.52
69971;BME280;57301;50.328;8.542;2022-11-21T07:14:20;97400.34;;;5.07;89.03
69971;BME280;57301;50.328;8.542;2022-11-21T07:16:46;97403.16;;;4.96;90.00
69971;BME280;57301;50.328;8.542;2022-11-21T07:19:13;97411.91;;;4.97;89.90
69971;BME280;57301;50.328;8.542;2022-11-21T07:21:39;97418.19;;;4.96;91.01
69971;BME280;57301;50.328;8.542;2022-11-21T07:24:06;97415.34;;;5.07;90.08
69971;BME280;57301;50.328;8.542;2022-11-21T07:26:32;97407.34;;;4.99;91.08
69971;BME280;57301;50.328;8.542;2022-11-21T07:28:59;97403.75;;;4.90;91.38
69971;BME280;57301;50.328;8.542;2022-11-21T07:31:25;97403.06;;;4.88;90.98
69971;BME280;57301;50.328;8.542;2022-11-21T07:33:52;97413.47;;;4.90;90.72
69971;BME280;57301;50.328;8.542;2022-11-21T07:36:18;97417.78;;;4.91;90.65
69971;BME280;57301;50.328;8.542;2022-11-21T07:38:45;97427.19;;;5.03;90.89
69971;BME280;57301;50.328;8.542;2022-11-21T07:41:12;97428.38;;;5.18;89.05
69971;BME280;57301;50.328;8.542;2022-11-21T07:43:38;97437.13;;;5.28;89.29
69971;BME280;57301;50.328;8.542;2022-11-21T07:46:05;97429.44;;;5.35;87.85
69971;BME280;57301;50.328;8.542;2022-11-21T07:48:31;97428.31;;;5.28;87.90
69971;BME280;57301;50.328;8.542;2022-11-21T07:50:58;97430.09;;;5.37;88.47
69971;BME280;57301;50.328;8.542;2022-11-21T07:53:24;97435.78;;;5.42;88.42
69971;BME280;57301;50.328;8.542;2022-11-21T07:55:51;97428.72;;;5.60;87.13
69971;BME280;57301;50.328;8.542;2022-11-21T07:58:17;97429.31;;;5.54;87.09
69971;BME280;57301;50.328;8.542;2022-11-21T08:00:44;97424.91;;;5.45;87.85
69971;BME280;57301;50.328;8.542;2022-11-21T08:03:11;97427.41;;;5.47;86.92
69971;BME280;57301;50.328;8.542;2022-11-21T08:05:40;97429.03;;;5.30;87.94
69971;BME280;57301;50.328;8.542;2022-11-21T08:08:09;97428.88;;;5.59;87.71
69971;BME280;57301;50.328;8.542;2022-11-21T08:10:39;97426.72;;;5.45;88.50
69971;BME280;57301;50.328;8.542;2022-11-21T08:13:06;97421.66;;;5.51;88.14
69971;BME280;57301;50.328;8.542;2022-11-21T08:15:33;97430.38;;;5.61;87.48
69971;BME280;57301;50.328;8.542;2022-11-21T08:18:09;97426.16;;;5.86;87.06
69971;BME280;57301;50.328;8.542;2022-11-21T08:20:36;97426.09;;;5.78;86.82
69971;BME280;57301;50.328;8.542;2022-11-21T08:23:04;97421.09;;;5.75;86.48
69971;BME280;57301;50.328;8.542;2022-11-21T08:25:36;97419.16;;;5.77;86.82
69971;BME280;57301;50.328;8.542;2022-11-21T08:28:03;97420.09;;;5.76;86.23
69971;BME280;57301;50.328;8.542;2022-11-21T08:30:30;97426.44;;;5.93;86.06
69971;BME280;57301;50.328;8.542;2022-11-21T08:32:58;97412.09;;;5.86;85.31
69971;BME280;57301;50.328;8.542;2022-11-21T08:35:26;97428.72;;;5.60;85.85
69971;BME280;57301;50.328;8.542;2022-11-21T08:38:00;97424.03;;;5.54;86.27
69971;BME280;57301;50.328;8.542;2022-11-21T08:40:29;97426.94;;;5.79;85.77
69971;BME280;57301;50.328;8.542;2022-11-21T08:43:01;97419.31;;;5.93;85.56
69971;BME280;57301;50.328;8.542;2022-11-21T08:45:28;97424.34;;;5.87;85.46
69971;BME280;57301;50.328;8.542;2022-11-21T08:47:55;97419.13;;;5.59;86.01
69971;BME280;57301;50.328;8.542;2022-11-21T08:50:22;97414.13;;;5.56;86.41
69971;BME280;57301;50.328;8.542;2022-11-21T08:52:48;97405.78;;;5.51;86.83
69971;BME280;57301;50.328;8.542;2022-11-21T08:55:15;97405.56;;;5.45;86.62
69971;BME280;57301;50.328;8.542;2022-11-21T08:57:42;97392.97;;;5.56;86.55
69971;BME280;57301;50.328;8.542;2022-11-21T09:00:10;97400.25;;;5.72;86.04
69971;BME280;57301;50.328;8.542;2022-11-21T09:02:39;97401.16;;;5.81;85.51
69971;BME280;57301;50.328;8.542;2022-11-21T09:05:06;97397.06;;;5.69;86.18
69971;BME280;57301;50.328;8.542;2022-11-21T09:07:32;97391.34;;;5.91;85.39
69971;BME280;57301;50.328;8.542;2022-11-21T09:09:59;97392.78;;;6.03;85.27
69971;BME280;57301;50.328;8.542;2022-11-21T09:12:26;97381.28;;;6.12;84.86
69971;BME280;57301;50.328;8.542;2022-11-21T09:14:52;97390.06;;;5.95;84.79
69971;BME280;57301;50.328;8.542;2022-11-21T09:17:37;97394.19;;;5.62;86.16
69971;BME280;57301;50.328;8.542;2022-11-21T09:20:22;97408.44;;;5.97;86.16
69971;BME280;57301;50.328;8.542;2022-11-21T09:22:49;97404.34;;;5.84;86.06
69971;BME280;57301;50.328;8.542;2022-11-21T09:25:15;97408.56;;;5.77;86.50
69971;BME280;57301;50.328;8.542;2022-11-21T09:27:42;97403.50;;;5.84;86.52
69971;BME280;57301;50.328;8.542;2022-11-21T09:30:09;97399.03;;;5.84;86.52
69971;BME280;57301;50.328;8.542;2022-11-21T09:32:35;97402.66;;;5.65;87.00
69971;BME280;57301;50.328;8.542;2022-11-21T09:35:04;97408.63;;;5.68;86.48
69971;BME280;57301;50.328;8.542;2022-11-21T09:37:35;97406.53;;;5.71;87.02
69971;BME280;57301;50.328;8.542;2022-11-21T09:40:03;97409.44;;;5.68;87.24
69971;BME280;57301;50.328;8.542;2022-11-21T09:45:16;97413.84;;;5.77;87.43
69971;BME280;57301;50.328;8.542;2022-11-21T09:47:50;97415.28;;;5.72;87.12
69971;BME280;57301;50.328;8.542;2022-11-21T09:50:24;97410.81;;;5.72;85.82
69971;BME280;57301;50.328;8.542;2022-11-21T09:53:00;97415.56;;;6.14;84.09
69971;BME280;57301;50.328;8.542;2022-11-21T09:55:36;97414.69;;;6.31;83.67
69971;BME280;57301;50.328;8.542;2022-11-21T09:58:15;97411.53;;;6.80;83.00
69971;BME280;57301;50.328;8.542;2022-11-21T10:00:45;97404.63;;;7.21;80.38
69971;BME280;57301;50.328;8.542;2022-11-21T10:03:12;97404.06;;;7.51;79.26
69971;BME280;57301;50.328;8.542;2022-11-21T10:08:34;97390.56;;;7.28;79.36
69971;BME280;57301;50.328;8.542;2022-11-21T10:25:32;97382.66;;;10.01;68.55
69971;BME280;57301;50.328;8.542;2022-11-21T10:30:58;97364.75;;;11.15;64.58
69971;BME280;57301;50.328;8.542;2022-11-21T10:33:33;97363.69;;;10.94;62.45
69971;BME280;57301;50.328;8.542;2022-11-21T10:36:25;97362.53;;;10.59;65.28
69971;BME280;57301;50.328;8.542;2022-11-21T10:39:00;97357.09;;;11.92;61.76
69971;BME280;57301;50.328;8.542;2022-11-21T10:44:26;97350.16;;;14.25;54.05
69971;BME280;57301;50.328;8.542;2022-11-21T10:47:19;97342.75;;;14.81;51.65
69971;BME280;57301;50.328;8.542;2022-11-21T10:52:41;97324.75;;;13.27;53.75
69971;BME280;57301;50.328;8.542;2022-11-21T10:55:12;97314.88;;;13.28;53.42
69971;BME280;57301;50.328;8.542;2022-11-21T10:57:43;97312.00;;;12.32;56.69
69971;BME280;57301;50.328;8.542;2022-11-21T11:02:37;97301.47;;;12.24;57.23
69971;BME280;57301;50.328;8.542;2022-11-21T11:05:21;97305.00;;;11.45;58.32
69971;BME280;57301;50.328;8.542;2022-11-21T11:10:43;97322.94;;;8.71;66.88
69971;BME280;57301;50.328;8.542;2022-11-21T11:13:13;97316.47;;;8.74;68.04
69971;BME280;57301;50.328;8.542;2022-11-21T11:16:17;97297.31;;;12.21;59.85
69971;BME280;57301;50.328;8.542;2022-11-21T11:21:28;97302.78;;;10.16;62.69
69971;BME280;57301;50.328;8.542;2022-11-21T11:24:19;97303.81;;;10.82;62.73
69971;BME280;57301;50.328;8.542;2022-11-21T11:29:17;97294.31;;;9.75;64.99
69971;BME280;57301;50.328;8.542;2022-11-21T11:34:16;97279.91;;;9.15;67.06
69971;BME280;57301;50.328;8.542;2022-11-21T11:37:12;97272.97;;;9.60;66.69
69971;BME280;57301;50.328;8.542;2022-11-21T11:39:54;97274.41;;;8.77;67.67
69971;BME280;57301;50.328;8.542;2022-11-21T11:45:34;97270.03;;;8.53;70.22
69971;BME280;57301;50.328;8.542;2022-11-21T11:48:23;97262.81;;;8.70;70.69
69971;BME280;57301;50.328;8.542;2022-11-21T11:50:59;97262.31;;;7.78;72.19
69971;BME280;57301;50.328;8.542;2022-11-21T11:53:34;97259.81;;;8.01;71.28
69971;BME280;57301;50.328;8.542;2022-11-21T11:56:09;97261.00;;;7.99;70.60
69971;BME280;57301;50.328;8.542;2022-11-21T12:02:22;97255.69;;;7.34;71.41
69971;BME280;57301;50.328;8.542;2022-11-21T12:05:08;97242.44;;;7.50;71.08
69971;BME280;57301;50.328;8.542;2022-11-21T12:07:40;97242.94;;;7.45;71.55
69971;BME280;57301;50.328;8.542;2022-11-21T12:10:47;97230.31;;;7.39;71.60
69971;BME280;57301;50.328;8.542;2022-11-21T12:13:35;97226.84;;;7.79;69.78
69971;BME280;57301;50.328;8.542;2022-11-21T12:16:05;97224.69;;;7.34;70.57
69971;BME280;57301;50.328;8.542;2022-11-21T12:18:59;97222.69;;;7.36;71.15
69971;BME280;57301;50.328;8.542;2022-11-21T12:21:28;97216.06;;;7.48;71.56
69971;BME280;57301;50.328;8.542;2022-11-21T12:23:56;97214.91;;;7.35;71.33
69971;BME280;57301;50.328;8.542;2022-11-21T12:26:39;97205.22;;;6.93;73.30
69971;BME280;57301;50.328;8.542;2022-11-21T12:29:43;97207.06;;;6.92;73.82
69971;BME280;57301;50.328;8.542;2022-11-21T12:38:03;97180.41;;;7.59;74.00
69971;BME280;57301;50.328;8.542;2022-11-21T12:41:05;97173.03;;;8.02;70.85
69971;BME280;57301;50.328;8.542;2022-11-21T12:44:05;97174.22;;;8.55;69.52
69971;BME280;57301;50.328;8.542;2022-11-21T12:46:55;97177.94;;;7.74;72.01
69971;BME280;57301;50.328;8.542;2022-11-21T12:49:42;97180.03;;;7.95;73.11
69971;BME280;57301;50.328;8.542;2022-11-21T12:52:39;97176.44;;;8.27;72.56
69971;BME280;57301;50.328;8.542;2022-11-21T12:55:31;97173.03;;;8.02;72.89
69971;BME280;57301;50.328;8.542;2022-11-21T13:00:51;97170.66;;;7.68;75.25
69971;BME280;57301;50.328;8.542;2022-11-21T13:03:38;97163.50;;;7.68;75.66
69971;BME280;57301;50.328;8.542;2022-11-21T13:06:15;97168.78;;;7.85;75.58
69971;BME280;57301;50.328;8.542;2022-11-21T13:08:44;97159.81;;;7.94;74.00
69971;BME280;57301;50.328;8.542;2022-11-21T13:14:16;97152.94;;;7.19;75.25
69971;BME280;57301;50.328;8.542;2022-11-21T13:30:56;97139.66;;;7.11;76.24
69971;BME280;57301;50.328;8.542;2022-11-21T13:33:45;97138.84;;;7.19;75.60
69971;BME280;57301;50.328;8.542;2022-11-21T13:47:01;97109.63;;;9.90;62.47
69971;BME280;57301;50.328;8.542;2022-11-21T13:52:24;97106.88;;;8.94;65.64
69971;BME280;57301;50.328;8.542;2022-11-21T14:03:32;97090.19;;;8.23;66.83
69971;BME280;57301;50.328;8.542;2022-11-21T14:12:00;97070.69;;;7.99;66.62
69971;BME280;57301;50.328;8.542;2022-11-21T14:14:30;97072.97;;;8.11;67.05
69971;BME280;57301;50.328;8.542;2022-11-21T14:17:12;97073.00;;;8.02;67.42
69971;BME280;57301;50.328;8.542;2022-11-21T14:19:42;97068.94;;;7.84;67.63
69971;BME280;57301;50.328;8.542;2022-11-21T14:22:34;97056.66;;;8.76;64.77
69971;BME280;57301;50.328;8.542;2022-11-21T14:25:16;97049.78;;;9.04;64.32
69971;BME280;57301;50.328;8.542;2022-11-21T14:27:48;97056.19;;;8.49;64.99
69971;BME280;57301;50.328;8.542;2022-11-21T14:30:32;97041.19;;;8.25;65.85
69971;BME280;57301;50.328;8.542;2022-11-21T14:35:52;97035.66;;;8.35;65.39
69971;BME280;57301;50.328;8.542;2022-11-21T14:38:20;97030.34;;;8.04;66.39
69971;BME280;57301;50.328;8.542;2022-11-21T14:40:47;97030.94;;;7.83;67.57
69971;BME280;57301;50.328;8.542;2022-11-21T14:43:29;97028.97;;;7.77;67.18
69971;BME280;57301;50.328;8.542;2022-11-21T14:45:57;97031.59;;;7.85;67.56
69971;BME280;57301;50.328;8.542;2022-11-21T14:48:28;97015.94;;;7.59;69.00
69971;BME280;57301;50.328;8.542;2022-11-21T14:50:58;97015.66;;;7.46;68.75
69971;BME280;57301;50.328;8.542;2022-11-21T14:53:27;97009.59;;;7.21;70.16
69971;BME280;57301;50.328;8.542;2022-11-21T14:55:53;97000.84;;;7.12;70.07
69971;BME280;57301;50.328;8.542;2022-11-21T14:58:26;97002.22;;;6.67;71.77
69971;BME280;57301;50.328;8.542;2022-11-21T15:01:04;97006.03;;;6.65;72.63
69971;BME280;57301;50.328;8.542;2022-11-21T15:03:31;97021.41;;;6.61;72.08
69971;BME280;57301;50.328;8.542;2022-11-21T15:06:00;97020.41;;;6.54;72.65
69971;BME280;57301;50.328;8.542;2022-11-21T15:08:33;97011.50;;;6.39;73.54
69971;BME280;57301;50.328;8.542;2022-11-21T15:11:23;97006.19;;;6.39;73.63
69971;BME280;57301;50.328;8.542;2022-11-21T15:13:54;96997.75;;;6.27;74.13
69971;BME280;57301;50.328;8.542;2022-11-21T15:16:42;96994.09;;;6.36;73.84
69971;BME280;57301;50.328;8.542;2022-11-21T15:19:09;96983.16;;;6.31;74.21